createdAt,value
2018-12-20T00:01:07.677Z,7.63
2018-12-20T00:03:35.978Z,7.66
2018-12-20T00:06:04.349Z,7.49
2018-12-20T00:08:32.676Z,7.43
2018-12-20T00:11:01.067Z,7.39
2018-12-20T00:13:29.513Z,7.40
2018-12-20T00:15:57.811Z,7.47
2018-12-20T00:18:26.193Z,7.59
2018-12-20T00:20:55.033Z,7.70
2018-12-20T00:23:23.434Z,7.52
2018-12-20T00:25:51.710Z,7.56
2018-12-20T00:28:20.202Z,7.57
2018-12-20T00:30:48.622Z,7.58
2018-12-20T00:33:17.222Z,7.68
2018-12-20T00:35:45.662Z,7.64
2018-12-20T00:38:14.254Z,7.59
2018-12-20T00:40:42.596Z,7.52
2018-12-20T00:43:10.952Z,7.30
2018-12-20T00:45:39.465Z,7.24
2018-12-20T00:48:07.859Z,7.13
2018-12-20T00:50:36.152Z,7.21
2018-12-20T00:53:04.525Z,6.98
2018-12-20T00:55:32.975Z,7.21
2018-12-20T00:58:01.460Z,7.38
2018-12-20T01:00:30.082Z,7.37
2018-12-20T01:02:58.578Z,7.31
2018-12-20T01:05:27.993Z,7.33
2018-12-20T01:07:56.597Z,7.48
2018-12-20T01:10:25.163Z,7.39
2018-12-20T01:12:53.569Z,7.45
2018-12-20T01:15:21.951Z,7.17
2018-12-20T01:17:50.320Z,6.75
2018-12-20T01:20:18.697Z,6.97
2018-12-20T01:22:47.105Z,6.93
2018-12-20T01:25:15.603Z,6.86
2018-12-20T01:27:44.279Z,6.99
2018-12-20T01:30:12.668Z,7.09
2018-12-20T01:32:41.050Z,7.17
2018-12-20T01:35:09.505Z,6.91
2018-12-20T01:37:37.834Z,6.79
2018-12-20T01:40:06.689Z,7.04
2018-12-20T01:42:35.182Z,7.00
2018-12-20T01:45:03.827Z,6.96
2018-12-20T01:47:32.614Z,7.21
2018-12-20T01:50:01.223Z,7.35
2018-12-20T01:52:29.586Z,7.23
2018-12-20T01:54:57.951Z,7.30
2018-12-20T01:57:26.381Z,7.41
2018-12-20T01:59:54.874Z,7.54
2018-12-20T02:02:23.373Z,7.64
2018-12-20T02:04:51.688Z,7.38
2018-12-20T02:07:20.035Z,7.58
2018-12-20T02:09:48.370Z,7.51
2018-12-20T02:12:16.978Z,7.60
2018-12-20T02:14:45.264Z,7.67
2018-12-20T02:17:13.736Z,7.52
2018-12-20T02:19:42.112Z,7.55
2018-12-20T02:22:10.414Z,7.57
2018-12-20T02:24:38.744Z,7.59
2018-12-20T02:27:07.150Z,7.30
2018-12-20T02:29:35.659Z,7.06
2018-12-20T02:32:04.243Z,7.00
2018-12-20T02:34:33.018Z,7.18
2018-12-20T02:37:01.309Z,7.11
2018-12-20T02:39:29.687Z,7.17
2018-12-20T02:41:58.484Z,7.19
2018-12-20T02:44:27.290Z,7.21
2018-12-20T02:46:55.665Z,7.12
2018-12-20T02:49:24.065Z,7.25
2018-12-20T02:51:52.647Z,7.34
2018-12-20T02:54:21.808Z,7.38
2018-12-20T02:56:50.535Z,7.18
2018-12-20T02:59:19.047Z,7.24
2018-12-20T03:01:47.475Z,7.29
2018-12-20T03:04:15.876Z,7.03
2018-12-20T03:06:44.332Z,6.93
2018-12-20T03:09:12.659Z,6.82
2018-12-20T03:11:41.082Z,6.95
2018-12-20T03:14:09.431Z,7.23
2018-12-20T03:16:37.896Z,7.08
2018-12-20T03:19:06.890Z,7.04
2018-12-20T03:21:35.232Z,7.23
2018-12-20T03:24:03.874Z,7.37
2018-12-20T03:26:32.440Z,7.39
2018-12-20T03:29:00.940Z,7.34
2018-12-20T03:31:29.250Z,7.28
2018-12-20T03:33:58.356Z,7.03
2018-12-20T03:36:26.750Z,7.02
2018-12-20T03:38:55.325Z,7.16
2018-12-20T03:41:25.621Z,7.22
2018-12-20T03:43:53.977Z,7.37
2018-12-20T03:46:22.324Z,7.37
2018-12-20T03:48:50.926Z,7.43
2018-12-20T03:51:19.378Z,7.48
2018-12-20T03:53:47.784Z,7.43
2018-12-20T03:56:16.571Z,7.31
2018-12-20T03:58:44.865Z,7.31
2018-12-20T04:01:13.193Z,7.24
2018-12-20T04:03:41.718Z,7.36
2018-12-20T04:06:10.177Z,7.45
2018-12-20T04:08:38.607Z,7.47
2018-12-20T04:11:07.014Z,7.43
2018-12-20T04:13:35.397Z,7.48
2018-12-20T04:16:04.119Z,7.41
2018-12-20T04:18:32.707Z,7.66
2018-12-20T04:21:01.151Z,7.37
2018-12-20T04:23:29.719Z,7.39
2018-12-20T04:25:58.519Z,7.03
2018-12-20T04:28:26.978Z,6.84
2018-12-20T04:30:55.535Z,6.95
2018-12-20T04:33:23.850Z,7.00
2018-12-20T04:35:52.332Z,6.83
2018-12-20T04:38:21.166Z,7.04
2018-12-20T04:40:49.790Z,7.07
2018-12-20T04:43:18.258Z,7.27
2018-12-20T04:45:47.017Z,7.34
2018-12-20T04:48:16.009Z,7.35
2018-12-20T04:50:44.608Z,7.55
2018-12-20T04:53:13.021Z,7.66
2018-12-20T04:55:41.503Z,7.74
2018-12-20T04:58:10.072Z,7.72
2018-12-20T05:00:40.565Z,7.63
2018-12-20T05:03:08.802Z,7.67
2018-12-20T05:05:37.129Z,7.63
2018-12-20T05:08:05.516Z,7.68
2018-12-20T05:10:34.272Z,7.72
2018-12-20T05:13:02.893Z,7.52
2018-12-20T05:15:31.709Z,7.21
2018-12-20T05:18:00.339Z,7.25
2018-12-20T05:20:28.892Z,7.21
2018-12-20T05:22:57.548Z,7.27
2018-12-20T05:25:26.073Z,7.32
2018-12-20T05:27:54.799Z,7.13
2018-12-20T05:30:23.110Z,7.33
2018-12-20T05:32:51.711Z,7.47
2018-12-20T05:35:20.081Z,7.47
2018-12-20T05:37:48.621Z,7.37
2018-12-20T05:40:17.023Z,7.29
2018-12-20T05:42:45.497Z,7.31
2018-12-20T05:45:14.388Z,7.49
2018-12-20T05:47:42.862Z,7.73
2018-12-20T05:50:11.244Z,7.88
2018-12-20T05:52:39.614Z,7.73
2018-12-20T05:55:08.200Z,7.67
2018-12-20T05:57:36.525Z,7.61
2018-12-20T06:00:08.395Z,7.50
2018-12-20T06:02:36.969Z,7.29
2018-12-20T06:05:06.810Z,7.40
2018-12-20T06:07:35.129Z,7.17
2018-12-20T06:10:03.613Z,7.01
2018-12-20T06:12:32.133Z,6.95
2018-12-20T06:15:00.476Z,7.06
2018-12-20T06:17:29.079Z,7.10
2018-12-20T06:19:57.571Z,7.30
2018-12-20T06:22:26.320Z,7.51
2018-12-20T06:24:54.906Z,7.61
2018-12-20T06:27:23.250Z,7.42
2018-12-20T06:29:51.527Z,7.34
2018-12-20T06:32:19.937Z,7.13
2018-12-20T06:34:48.256Z,7.27
2018-12-20T06:37:16.543Z,7.35
2018-12-20T06:39:45.319Z,7.35
2018-12-20T06:42:13.610Z,7.48
2018-12-20T06:44:41.918Z,7.35
2018-12-20T06:47:11.289Z,7.46
2018-12-20T06:49:39.596Z,7.51
2018-12-20T06:52:07.880Z,7.42
2018-12-20T06:54:36.187Z,7.35
2018-12-20T06:57:04.514Z,7.09
2018-12-20T06:59:32.782Z,7.07
2018-12-20T07:02:01.311Z,7.04
2018-12-20T07:04:29.608Z,7.13
2018-12-20T07:06:57.898Z,6.93
2018-12-20T07:09:26.207Z,7.12
2018-12-20T07:11:54.471Z,7.30
2018-12-20T07:14:22.789Z,7.16
2018-12-20T07:16:51.139Z,7.28
2018-12-20T07:19:22.385Z,7.39
2018-12-20T07:21:50.684Z,7.69
2018-12-20T07:24:19.179Z,7.73
2018-12-20T07:26:47.485Z,7.66
2018-12-20T07:29:15.753Z,7.60
2018-12-20T07:31:44.114Z,7.49
2018-12-20T07:34:12.383Z,7.47
2018-12-20T07:36:40.685Z,7.42
2018-12-20T07:39:09.007Z,7.28
2018-12-20T07:41:37.291Z,7.15
2018-12-20T07:44:05.596Z,7.30
2018-12-20T07:46:37.845Z,7.37
2018-12-20T07:49:04.333Z,7.52
2018-12-20T07:51:32.601Z,7.63
2018-12-20T07:54:00.912Z,7.73
2018-12-20T07:56:29.254Z,7.69
2018-12-20T07:58:57.534Z,7.68
2018-12-20T08:01:26.008Z,7.79
2018-12-20T08:03:54.305Z,7.72
2018-12-20T08:06:22.702Z,7.41
2018-12-20T08:08:51.305Z,7.22
2018-12-20T08:11:19.598Z,7.33
2018-12-20T08:13:47.877Z,7.29
2018-12-20T08:16:16.223Z,7.40
2018-12-20T08:18:44.532Z,7.47
2018-12-20T08:21:12.947Z,7.55
2018-12-20T08:23:41.238Z,7.64
2018-12-20T08:26:09.518Z,7.88
2018-12-20T08:28:37.783Z,7.88
2018-12-20T08:31:06.206Z,7.92
2018-12-20T08:33:34.480Z,7.77
2018-12-20T08:36:02.763Z,7.87
2018-12-20T08:38:31.138Z,8.02
2018-12-20T08:40:59.446Z,8.18
2018-12-20T08:43:27.793Z,8.04
2018-12-20T08:45:56.103Z,7.99
2018-12-20T08:48:24.405Z,8.15
2018-12-20T08:50:52.768Z,8.02
2018-12-20T08:53:21.343Z,7.81
2018-12-20T08:55:49.659Z,7.81
2018-12-20T08:58:17.988Z,7.70
2018-12-20T09:00:46.304Z,7.61
2018-12-20T09:03:14.682Z,7.69
2018-12-20T09:05:42.951Z,7.77
2018-12-20T09:08:11.318Z,7.96
2018-12-20T09:10:39.590Z,7.93
2018-12-20T09:13:09.706Z,7.92
2018-12-20T09:15:38.450Z,7.97
2018-12-20T09:18:07.856Z,8.10
2018-12-20T09:20:36.970Z,8.20
2018-12-20T09:23:06.989Z,8.12
2018-12-20T09:25:35.314Z,8.29
2018-12-20T09:30:38.207Z,8.02
2018-12-20T09:33:08.447Z,8.07
2018-12-20T09:35:36.794Z,8.35
2018-12-20T09:38:05.657Z,8.20
2018-12-20T09:40:33.993Z,8.14
2018-12-20T09:43:02.339Z,8.14
2018-12-20T09:45:30.650Z,8.23
2018-12-20T09:48:04.475Z,8.08
2018-12-20T09:50:33.172Z,8.26
2018-12-20T09:53:01.467Z,8.08
2018-12-20T09:55:29.749Z,8.26
2018-12-20T09:57:58.232Z,8.28
2018-12-20T10:00:26.553Z,8.54
2018-12-20T10:02:54.820Z,8.54
2018-12-20T10:05:23.152Z,8.77
2018-12-20T10:07:51.427Z,9.04
2018-12-20T10:10:19.873Z,8.91
2018-12-20T10:12:48.320Z,8.69
2018-12-20T10:15:16.587Z,8.51
2018-12-20T10:17:44.948Z,8.67
2018-12-20T10:20:13.719Z,8.64
2018-12-20T10:22:42.125Z,8.59
2018-12-20T10:25:10.465Z,8.52
2018-12-20T10:27:38.779Z,8.55
2018-12-20T10:30:07.486Z,8.49
2018-12-20T10:32:35.797Z,8.37
2018-12-20T10:35:05.024Z,8.41
2018-12-20T10:37:33.320Z,8.48
2018-12-20T10:40:01.632Z,8.88
2018-12-20T10:42:30.452Z,8.73
2018-12-20T10:44:58.740Z,8.65
2018-12-20T10:47:29.125Z,8.82
2018-12-20T10:49:57.420Z,8.71
2018-12-20T10:52:25.710Z,8.60
2018-12-20T10:54:54.032Z,8.44
2018-12-20T10:57:22.384Z,8.73
2018-12-20T10:59:50.679Z,9.01
2018-12-20T11:02:24.869Z,9.17
2018-12-20T11:04:58.578Z,9.14
2018-12-20T11:07:32.460Z,9.36
2018-12-20T11:10:06.291Z,8.97
2018-12-20T11:12:40.132Z,8.69
2018-12-20T11:15:08.480Z,8.99
2018-12-20T11:17:37.549Z,9.12
2018-12-20T11:20:07.848Z,9.14
2018-12-20T11:22:36.160Z,9.37
2018-12-20T11:25:06.206Z,9.33
2018-12-20T11:27:34.521Z,9.36
2018-12-20T11:30:02.857Z,9.57
2018-12-20T11:32:31.157Z,9.60
2018-12-20T11:34:59.459Z,9.60
2018-12-20T11:37:27.772Z,9.79
2018-12-20T11:39:59.822Z,9.84
2018-12-20T11:42:26.790Z,9.86
2018-12-20T11:44:55.146Z,10.25
2018-12-20T11:47:27.630Z,10.00
2018-12-20T11:49:56.006Z,9.92
2018-12-20T11:52:24.386Z,9.84
2018-12-20T11:54:54.175Z,9.97
2018-12-20T11:57:22.719Z,9.83
2018-12-20T11:59:51.171Z,9.66
2018-12-20T12:02:24.495Z,9.89
2018-12-20T12:04:49.972Z,10.01
2018-12-20T12:07:18.263Z,9.94
2018-12-20T12:09:46.669Z,9.78
2018-12-20T12:12:15.120Z,9.68
2018-12-20T12:14:43.390Z,9.93
2018-12-20T12:17:11.687Z,10.10
2018-12-20T12:19:40.040Z,9.95
2018-12-20T12:22:08.378Z,9.87
2018-12-20T12:24:37.166Z,9.85
2018-12-20T12:27:05.511Z,10.03
2018-12-20T12:29:33.791Z,10.02
2018-12-20T12:32:02.108Z,9.91
2018-12-20T12:34:30.430Z,9.87
2018-12-20T12:36:58.708Z,9.81
2018-12-20T12:39:27.031Z,9.76
2018-12-20T12:41:55.349Z,9.80
2018-12-20T12:44:23.735Z,9.74
2018-12-20T12:46:52.523Z,9.69
2018-12-20T12:49:20.851Z,9.70
2018-12-20T12:51:53.047Z,9.41
2018-12-20T12:54:19.539Z,9.28
2018-12-20T12:56:47.840Z,9.41
2018-12-20T12:59:16.115Z,9.72
2018-12-20T13:01:44.474Z,9.71
2018-12-20T13:04:12.761Z,9.85
2018-12-20T13:06:41.027Z,9.94
2018-12-20T13:09:09.672Z,9.92
2018-12-20T13:11:37.976Z,9.92
2018-12-20T13:14:06.367Z,9.89
2018-12-20T13:16:34.718Z,10.07
2018-12-20T13:19:03.001Z,10.08
2018-12-20T13:21:31.375Z,9.76
2018-12-20T13:23:59.777Z,9.69
2018-12-20T13:26:28.108Z,9.62
2018-12-20T13:28:56.517Z,9.56
2018-12-20T13:31:25.350Z,9.55
2018-12-20T13:33:53.658Z,9.59
2018-12-20T13:36:21.958Z,9.53
2018-12-20T13:38:50.363Z,9.51
2018-12-20T13:41:18.736Z,9.34
2018-12-20T13:43:47.038Z,9.64
2018-12-20T13:46:15.409Z,9.50
2018-12-20T13:48:43.799Z,9.42
2018-12-20T13:51:12.145Z,9.52
2018-12-20T13:53:40.856Z,9.61
2018-12-20T13:56:09.167Z,9.71
2018-12-20T13:58:37.823Z,9.78
2018-12-20T14:01:06.492Z,9.82
2018-12-20T14:03:34.778Z,9.73
2018-12-20T14:06:03.839Z,9.69
2018-12-20T14:08:32.189Z,9.76
2018-12-20T14:11:00.523Z,9.73
2018-12-20T14:13:28.847Z,9.45
2018-12-20T14:15:57.382Z,9.65
2018-12-20T14:18:30.763Z,9.56
2018-12-20T14:20:56.021Z,9.64
2018-12-20T14:23:24.378Z,9.50
2018-12-20T14:25:52.701Z,9.74
2018-12-20T14:28:21.068Z,9.93
2018-12-20T14:30:49.390Z,9.78
2018-12-20T14:33:17.715Z,9.65
2018-12-20T14:35:46.060Z,9.62
2018-12-20T14:38:14.588Z,9.26
2018-12-20T14:40:42.894Z,9.57
2018-12-20T14:43:11.293Z,9.51
2018-12-20T14:45:39.629Z,9.57
2018-12-20T14:48:07.922Z,9.68
2018-12-20T14:50:36.205Z,9.69
2018-12-20T14:53:04.585Z,9.72
2018-12-20T14:55:32.902Z,9.82
2018-12-20T14:58:01.215Z,9.83
2018-12-20T15:00:29.634Z,9.69
2018-12-20T15:02:57.972Z,9.79
2018-12-20T15:05:26.530Z,9.60
2018-12-20T15:07:54.988Z,9.63
2018-12-20T15:10:23.303Z,9.68
2018-12-20T15:12:51.655Z,9.74
2018-12-20T15:15:19.978Z,9.84
2018-12-20T15:17:48.363Z,9.81
2018-12-20T15:20:16.781Z,9.79
2018-12-20T15:22:45.613Z,9.43
2018-12-20T15:25:14.001Z,9.58
2018-12-20T15:27:42.376Z,9.53
2018-12-20T15:30:11.586Z,9.62
2018-12-20T15:32:39.901Z,9.48
2018-12-20T15:35:08.284Z,9.38
2018-12-20T15:37:36.603Z,9.41
2018-12-20T15:40:07.626Z,9.56
2018-12-20T15:42:36.087Z,9.42
2018-12-20T15:45:06.705Z,9.43
2018-12-20T15:47:35.083Z,9.42
2018-12-20T15:50:04.479Z,9.45
2018-12-20T15:52:32.840Z,9.42
2018-12-20T15:55:01.170Z,9.42
2018-12-20T15:57:29.549Z,9.36
2018-12-20T15:59:57.927Z,9.27
2018-12-20T16:02:28.165Z,9.14
2018-12-20T16:04:56.669Z,9.10
2018-12-20T16:07:25.239Z,9.18
2018-12-20T16:09:53.659Z,9.01
2018-12-20T16:12:21.993Z,8.85
2018-12-20T16:14:50.365Z,8.78
2018-12-20T16:17:18.719Z,8.97
2018-12-20T16:19:47.089Z,9.19
2018-12-20T16:22:15.556Z,9.35
2018-12-20T16:24:43.930Z,9.24
2018-12-20T16:27:12.276Z,9.17
2018-12-20T16:29:40.853Z,9.01
2018-12-20T16:32:09.201Z,8.82
2018-12-20T16:34:37.490Z,8.82
2018-12-20T16:37:05.802Z,9.07
2018-12-20T16:39:34.122Z,9.23
2018-12-20T16:42:02.492Z,9.19
2018-12-20T16:44:30.822Z,9.15
2018-12-20T16:46:59.146Z,9.29
2018-12-20T16:49:27.471Z,9.28
2018-12-20T16:51:55.897Z,9.12
2018-12-20T16:54:24.261Z,9.11
2018-12-20T16:56:52.635Z,9.23
2018-12-20T16:59:21.148Z,9.38
2018-12-20T17:01:49.431Z,9.42
2018-12-20T17:04:17.811Z,9.39
2018-12-20T17:06:46.306Z,9.26
2018-12-20T17:09:14.618Z,9.28
2018-12-20T17:11:42.944Z,9.08
2018-12-20T17:14:11.450Z,9.00
2018-12-20T17:16:39.799Z,9.08
2018-12-20T17:19:08.208Z,9.15
2018-12-20T17:21:36.715Z,8.82
2018-12-20T17:26:39.569Z,9.32
2018-12-20T17:29:07.898Z,9.35
2018-12-20T17:31:36.220Z,9.21
2018-12-20T17:34:04.956Z,8.83
2018-12-20T17:36:33.341Z,8.96
2018-12-20T17:39:01.700Z,9.00
2018-12-20T17:41:30.045Z,9.18
2018-12-20T17:43:58.355Z,9.12
2018-12-20T17:46:26.746Z,8.96
2018-12-20T17:48:55.078Z,9.12
2018-12-20T17:51:23.407Z,9.13
2018-12-20T17:53:51.765Z,9.18
2018-12-20T17:56:20.507Z,9.30
2018-12-20T17:58:48.895Z,9.24
2018-12-20T18:01:17.326Z,9.13
2018-12-20T18:03:45.700Z,9.01
2018-12-20T18:06:14.163Z,9.15
2018-12-20T18:08:42.492Z,9.06
2018-12-20T18:11:10.811Z,8.75
2018-12-20T18:13:39.115Z,8.69
2018-12-20T18:16:07.482Z,8.55
2018-12-20T18:18:35.939Z,8.60
2018-12-20T18:21:04.303Z,8.60
2018-12-20T18:23:32.638Z,8.47
2018-12-20T18:26:01.089Z,8.42
2018-12-20T18:28:29.419Z,8.31
2018-12-20T18:30:57.795Z,8.51
2018-12-20T18:33:26.167Z,8.43
2018-12-20T18:35:54.437Z,8.40
2018-12-20T18:38:22.756Z,8.53
2018-12-20T18:40:51.607Z,8.78
2018-12-20T18:43:19.956Z,8.89
2018-12-20T18:45:48.290Z,8.99
2018-12-20T18:48:16.614Z,8.98
2018-12-20T18:50:44.930Z,8.93
2018-12-20T18:53:13.356Z,8.97
2018-12-20T18:55:41.680Z,8.92
2018-12-20T18:58:09.995Z,8.86
2018-12-20T19:00:38.468Z,8.61
2018-12-20T19:03:07.608Z,8.51
2018-12-20T19:05:35.927Z,8.45
2018-12-20T19:08:04.284Z,8.30
2018-12-20T19:10:32.644Z,8.39
2018-12-20T19:13:00.961Z,8.59
2018-12-20T19:15:29.288Z,8.74
2018-12-20T19:17:57.685Z,8.79
2018-12-20T19:20:25.994Z,8.85
2018-12-20T19:22:54.340Z,9.01
2018-12-20T19:25:23.404Z,8.91
2018-12-20T19:27:51.847Z,8.98
2018-12-20T19:30:20.174Z,8.87
2018-12-20T19:32:48.536Z,8.76
2018-12-20T19:35:16.912Z,8.74
2018-12-20T19:37:45.344Z,8.71
2018-12-20T19:40:13.710Z,8.51
2018-12-20T19:42:42.004Z,8.59
2018-12-20T19:45:10.360Z,8.63
2018-12-20T19:47:38.958Z,8.75
2018-12-20T19:50:08.828Z,8.64
2018-12-20T19:52:37.195Z,8.57
2018-12-20T19:55:06.483Z,8.46
2018-12-20T19:57:34.791Z,8.21
2018-12-20T20:00:05.062Z,8.19
2018-12-20T20:02:33.533Z,8.25
2018-12-20T20:05:01.950Z,8.35
2018-12-20T20:07:30.276Z,8.25
2018-12-20T20:09:58.796Z,8.33
2018-12-20T20:12:27.135Z,8.41
2018-12-20T20:14:55.512Z,8.42
2018-12-20T20:17:23.892Z,8.54
2018-12-20T20:19:59.573Z,8.47
2018-12-20T20:22:22.689Z,8.34
2018-12-20T20:24:51.072Z,8.22
2018-12-20T20:27:19.380Z,8.25
2018-12-20T20:29:47.721Z,8.29
2018-12-20T20:32:16.390Z,8.10
2018-12-20T20:34:44.721Z,8.26
2018-12-20T20:37:13.037Z,8.39
2018-12-20T20:39:41.443Z,8.45
2018-12-20T20:42:09.761Z,8.29
2018-12-20T20:44:38.088Z,8.40
2018-12-20T20:47:06.429Z,8.38
2018-12-20T20:49:34.755Z,8.45
2018-12-20T20:52:03.171Z,8.49
2018-12-20T20:54:31.863Z,8.57
2018-12-20T20:57:00.217Z,8.71
2018-12-20T20:59:28.536Z,8.61
2018-12-20T21:01:56.914Z,8.46
2018-12-20T21:04:25.388Z,8.41
2018-12-20T21:06:53.710Z,8.56
2018-12-20T21:09:22.081Z,8.56
2018-12-20T21:11:50.481Z,8.63
2018-12-20T21:14:18.850Z,8.58
2018-12-20T21:16:47.315Z,8.39
2018-12-20T21:19:15.703Z,8.43
2018-12-20T21:21:44.053Z,8.49
2018-12-20T21:24:12.407Z,8.43
2018-12-20T21:26:40.741Z,8.37
2018-12-20T21:29:09.074Z,8.35
2018-12-20T21:31:37.417Z,8.29
2018-12-20T21:34:05.788Z,8.38
2018-12-20T21:36:34.196Z,8.35
2018-12-20T21:39:02.670Z,8.37
2018-12-20T21:41:31.070Z,8.37
2018-12-20T21:43:59.421Z,8.42
2018-12-20T21:46:27.788Z,8.49
2018-12-20T21:48:56.098Z,8.56
2018-12-20T21:51:24.476Z,8.45
2018-12-20T21:53:54.941Z,8.60
2018-12-20T21:56:23.160Z,8.53
2018-12-20T21:58:51.500Z,8.58
2018-12-20T22:01:20.168Z,8.78
2018-12-20T22:03:48.499Z,8.67
2018-12-20T22:06:16.903Z,8.62
2018-12-20T22:08:45.270Z,8.87
2018-12-20T22:11:13.655Z,8.82
2018-12-20T22:13:41.994Z,8.98
2018-12-20T22:16:10.344Z,9.05
2018-12-20T22:18:38.842Z,9.04
2018-12-20T22:21:07.326Z,9.01
2018-12-20T22:23:35.903Z,9.09
2018-12-20T22:26:04.635Z,8.89
2018-12-20T22:28:32.936Z,8.58
2018-12-20T22:31:01.293Z,8.70
2018-12-20T22:33:29.627Z,8.59
2018-12-20T22:35:57.973Z,8.61
2018-12-20T22:38:26.289Z,8.66
2018-12-20T22:40:54.626Z,8.65
2018-12-20T22:43:22.937Z,8.92
2018-12-20T22:45:51.388Z,9.08
2018-12-20T22:48:19.678Z,9.17
2018-12-20T22:50:55.767Z,9.14
2018-12-20T22:53:18.385Z,9.26
2018-12-20T22:55:46.725Z,9.22
2018-12-20T22:58:15.108Z,9.20
2018-12-20T23:00:46.195Z,8.93
2018-12-20T23:03:14.531Z,8.95
2018-12-20T23:05:42.820Z,9.03
2018-12-20T23:08:11.469Z,9.25
2018-12-20T23:10:39.791Z,9.16
2018-12-20T23:13:08.117Z,9.39
2018-12-20T23:15:36.529Z,9.03
2018-12-20T23:18:04.898Z,8.97
2018-12-20T23:20:33.217Z,8.70
2018-12-20T23:23:01.583Z,8.71
2018-12-20T23:25:29.930Z,8.98
2018-12-20T23:27:58.254Z,8.98
2018-12-20T23:30:27.059Z,8.89
2018-12-20T23:32:55.365Z,9.02
2018-12-20T23:35:23.716Z,8.88
2018-12-20T23:37:52.049Z,8.85
2018-12-20T23:40:20.358Z,8.98
2018-12-20T23:42:48.654Z,8.86
2018-12-20T23:45:16.982Z,8.92
2018-12-20T23:47:45.353Z,9.07
2018-12-20T23:50:13.701Z,9.05
2018-12-20T23:52:42.968Z,8.85
2018-12-20T23:55:11.353Z,8.95
2018-12-20T23:57:39.708Z,8.89
